sensor_id;sensor_type;location;lat;lon;timestamp;P1;durP1;ratioP1;P2;durP2;ratioP2
58518;SDS011;44310;48.106;12.008;2023-04-01T00:01:49;0.60;;;0.60;;
58518;SDS011;44310;48.106;12.008;2023-04-01T00:04:16;0.40;;;0.40;;
58518;SDS011;44310;48.106;12.008;2023-04-01T00:06:44;0.28;;;0.28;;
58518;SDS011;44310;48.106;12.008;2023-04-01T00:09:11;0.50;;;0.50;;
58518;SDS011;44310;48.106;12.008;2023-04-01T00:11:38;0.30;;;0.30;;
58518;SDS011;44310;48.106;12.008;2023-04-01T00:14:06;0.30;;;0.30;;
58518;SDS011;44310;48.106;12.008;2023-04-01T00:16:34;0.30;;;0.30;;
58518;SDS011;44310;48.106;12.008;2023-04-01T00:19:01;0.40;;;0.40;;
58518;SDS011;44310;48.106;12.008;2023-04-01T00:21:29;0.30;;;0.30;;
58518;SDS011;44310;48.106;12.008;2023-04-01T00:23:56;0.40;;;0.40;;
58518;SDS011;44310;48.106;12.008;2023-04-01T00:26:24;0.30;;;0.30;;
58518;SDS011;44310;48.106;12.008;2023-04-01T00:28:51;0.30;;;0.30;;
58518;SDS011;44310;48.106;12.008;2023-04-01T00:31:19;0.30;;;0.30;;
58518;SDS011;44310;48.106;12.008;2023-04-01T00:33:46;0.38;;;0.38;;
58518;SDS011;44310;48.106;12.008;2023-04-01T00:36:15;0.30;;;0.30;;
58518;SDS011;44310;48.106;12.008;2023-04-01T00:38:44;0.30;;;0.30;;
58518;SDS011;44310;48.106;12.008;2023-04-01T00:41:13;0.20;;;0.20;;
58518;SDS011;44310;48.106;12.008;2023-04-01T00:43:43;0.30;;;0.30;;
58518;SDS011;44310;48.106;12.008;2023-04-01T00:46:13;0.30;;;0.30;;
58518;SDS011;44310;48.106;12.008;2023-04-01T00:48:48;0.20;;;0.20;;
58518;SDS011;44310;48.106;12.008;2023-04-01T00:51:22;0.30;;;0.30;;
58518;SDS011;44310;48.106;12.008;2023-04-01T00:53:52;0.30;;;0.30;;
58518;SDS011;44310;48.106;12.008;2023-04-01T00:56:22;0.25;;;0.25;;
58518;SDS011;44310;48.106;12.008;2023-04-01T00:58:54;0.40;;;0.40;;
58518;SDS011;44310;48.106;12.008;2023-04-01T01:01:26;0.30;;;0.30;;
58518;SDS011;44310;48.106;12.008;2023-04-01T01:03:55;0.30;;;0.30;;
58518;SDS011;44310;48.106;12.008;2023-04-01T01:09:13;0.20;;;0.20;;
58518;SDS011;44310;48.106;12.008;2023-04-01T01:11:54;0.40;;;0.40;;
58518;SDS011;44310;48.106;12.008;2023-04-01T01:17:26;0.25;;;0.25;;
58518;SDS011;44310;48.106;12.008;2023-04-01T01:26:17;0.30;;;0.28;;
58518;SDS011;44310;48.106;12.008;2023-04-01T01:31:50;0.20;;;0.20;;
58518;SDS011;44310;48.106;12.008;2023-04-01T01:37:44;0.20;;;0.20;;
58518;SDS011;44310;48.106;12.008;2023-04-01T01:40:13;0.20;;;0.20;;
58518;SDS011;44310;48.106;12.008;2023-04-01T01:42:47;0.20;;;0.20;;
58518;SDS011;44310;48.106;12.008;2023-04-01T01:45:18;0.20;;;0.20;;
58518;SDS011;44310;48.106;12.008;2023-04-01T01:47:48;0.20;;;0.20;;
58518;SDS011;44310;48.106;12.008;2023-04-01T01:50:16;0.20;;;0.20;;
58518;SDS011;44310;48.106;12.008;2023-04-01T01:52:44;0.20;;;0.20;;
58518;SDS011;44310;48.106;12.008;2023-04-01T01:58:08;0.20;;;0.20;;
58518;SDS011;44310;48.106;12.008;2023-04-01T02:00:55;0.50;;;0.50;;
58518;SDS011;44310;48.106;12.008;2023-04-01T02:03:26;0.30;;;0.30;;
58518;SDS011;44310;48.106;12.008;2023-04-01T02:05:56;0.20;;;0.20;;
58518;SDS011;44310;48.106;12.008;2023-04-01T02:11:07;0.20;;;0.20;;
58518;SDS011;44310;48.106;12.008;2023-04-01T02:16:18;0.20;;;0.20;;
58518;SDS011;44310;48.106;12.008;2023-04-01T02:18:50;0.30;;;0.30;;
58518;SDS011;44310;48.106;12.008;2023-04-01T02:21:21;0.20;;;0.20;;
58518;SDS011;44310;48.106;12.008;2023-04-01T02:23:50;0.20;;;0.20;;
58518;SDS011;44310;48.106;12.008;2023-04-01T02:26:19;0.30;;;0.30;;
58518;SDS011;44310;48.106;12.008;2023-04-01T02:28:47;0.20;;;0.20;;
58518;SDS011;44310;48.106;12.008;2023-04-01T02:31:15;0.30;;;0.30;;
58518;SDS011;44310;48.106;12.008;2023-04-01T02:33:43;0.30;;;0.30;;
58518;SDS011;44310;48.106;12.008;2023-04-01T02:36:12;0.30;;;0.30;;
58518;SDS011;44310;48.106;12.008;2023-04-01T02:38:41;0.30;;;0.30;;
58518;SDS011;44310;48.106;12.008;2023-04-01T02:41:10;0.40;;;0.40;;
58518;SDS011;44310;48.106;12.008;2023-04-01T02:43:38;0.30;;;0.30;;
58518;SDS011;44310;48.106;12.008;2023-04-01T02:46:05;0.30;;;0.30;;
58518;SDS011;44310;48.106;12.008;2023-04-01T02:48:32;0.30;;;0.30;;
58518;SDS011;44310;48.106;12.008;2023-04-01T02:51:00;0.30;;;0.30;;
58518;SDS011;44310;48.106;12.008;2023-04-01T02:53:27;0.20;;;0.20;;
58518;SDS011;44310;48.106;12.008;2023-04-01T02:55:54;0.30;;;0.30;;
58518;SDS011;44310;48.106;12.008;2023-04-01T02:58:22;0.20;;;0.20;;
58518;SDS011;44310;48.106;12.008;2023-04-01T03:00:49;0.20;;;0.20;;
58518;SDS011;44310;48.106;12.008;2023-04-01T03:03:16;0.30;;;0.30;;
58518;SDS011;44310;48.106;12.008;2023-04-01T03:05:43;0.20;;;0.20;;
58518;SDS011;44310;48.106;12.008;2023-04-01T03:08:11;0.20;;;0.20;;
58518;SDS011;44310;48.106;12.008;2023-04-01T03:10:38;0.20;;;0.20;;
58518;SDS011;44310;48.106;12.008;2023-04-01T03:13:05;0.20;;;0.20;;
58518;SDS011;44310;48.106;12.008;2023-04-01T03:15:32;0.40;;;0.35;;
58518;SDS011;44310;48.106;12.008;2023-04-01T03:18:00;0.30;;;0.30;;
58518;SDS011;44310;48.106;12.008;2023-04-01T03:20:27;0.30;;;0.30;;
58518;SDS011;44310;48.106;12.008;2023-04-01T03:22:54;0.30;;;0.30;;
58518;SDS011;44310;48.106;12.008;2023-04-01T03:25:21;0.20;;;0.20;;
58518;SDS011;44310;48.106;12.008;2023-04-01T03:27:48;0.30;;;0.30;;
58518;SDS011;44310;48.106;12.008;2023-04-01T03:30:16;0.20;;;0.20;;
58518;SDS011;44310;48.106;12.008;2023-04-01T03:32:43;0.22;;;0.22;;
58518;SDS011;44310;48.106;12.008;2023-04-01T03:35:10;0.20;;;0.20;;
58518;SDS011;44310;48.106;12.008;2023-04-01T03:37:37;0.30;;;0.30;;
58518;SDS011;44310;48.106;12.008;2023-04-01T03:40:04;0.20;;;0.20;;
58518;SDS011;44310;48.106;12.008;2023-04-01T03:42:32;0.20;;;0.20;;
58518;SDS011;44310;48.106;12.008;2023-04-01T03:44:59;0.20;;;0.20;;
58518;SDS011;44310;48.106;12.008;2023-04-01T03:47:26;0.20;;;0.20;;
58518;SDS011;44310;48.106;12.008;2023-04-01T03:49:53;0.20;;;0.20;;
58518;SDS011;44310;48.106;12.008;2023-04-01T03:52:21;0.20;;;0.20;;
58518;SDS011;44310;48.106;12.008;2023-04-01T03:54:48;0.20;;;0.20;;
58518;SDS011;44310;48.106;12.008;2023-04-01T03:57:15;0.20;;;0.20;;
58518;SDS011;44310;48.106;12.008;2023-04-01T03:59:42;0.20;;;0.20;;
58518;SDS011;44310;48.106;12.008;2023-04-01T04:02:09;0.30;;;0.30;;
58518;SDS011;44310;48.106;12.008;2023-04-01T04:04:37;0.25;;;0.25;;
58518;SDS011;44310;48.106;12.008;2023-04-01T04:07:04;0.20;;;0.20;;
58518;SDS011;44310;48.106;12.008;2023-04-01T04:09:31;0.30;;;0.30;;
58518;SDS011;44310;48.106;12.008;2023-04-01T04:12:00;0.20;;;0.20;;
58518;SDS011;44310;48.106;12.008;2023-04-01T04:14:27;0.30;;;0.30;;
58518;SDS011;44310;48.106;12.008;2023-04-01T04:16:54;0.20;;;0.20;;
58518;SDS011;44310;48.106;12.008;2023-04-01T04:19:21;0.30;;;0.30;;
58518;SDS011;44310;48.106;12.008;2023-04-01T04:21:48;0.20;;;0.20;;
58518;SDS011;44310;48.106;12.008;2023-04-01T04:24:16;0.20;;;0.20;;
58518;SDS011;44310;48.106;12.008;2023-04-01T04:26:43;0.30;;;0.30;;
58518;SDS011;44310;48.106;12.008;2023-04-01T04:29:10;0.30;;;0.30;;
58518;SDS011;44310;48.106;12.008;2023-04-01T04:31:37;0.20;;;0.20;;
58518;SDS011;44310;48.106;12.008;2023-04-01T04:34:04;0.30;;;0.30;;
58518;SDS011;44310;48.106;12.008;2023-04-01T04:36:31;0.30;;;0.30;;
58518;SDS011;44310;48.106;12.008;2023-04-01T04:38:58;0.20;;;0.20;;
58518;SDS011;44310;48.106;12.008;2023-04-01T04:41:28;0.30;;;0.30;;
58518;SDS011;44310;48.106;12.008;2023-04-01T04:43:56;0.20;;;0.20;;
58518;SDS011;44310;48.106;12.008;2023-04-01T04:46:23;0.30;;;0.30;;
58518;SDS011;44310;48.106;12.008;2023-04-01T04:48:51;0.30;;;0.30;;
58518;SDS011;44310;48.106;12.008;2023-04-01T04:51:18;0.30;;;0.30;;
58518;SDS011;44310;48.106;12.008;2023-04-01T04:53:46;0.20;;;0.20;;
58518;SDS011;44310;48.106;12.008;2023-04-01T04:56:18;0.30;;;0.30;;
58518;SDS011;44310;48.106;12.008;2023-04-01T04:58:46;0.20;;;0.20;;
58518;SDS011;44310;48.106;12.008;2023-04-01T05:01:14;0.30;;;0.30;;
58518;SDS011;44310;48.106;12.008;2023-04-01T05:03:43;0.20;;;0.20;;
58518;SDS011;44310;48.106;12.008;2023-04-01T05:06:12;0.30;;;0.30;;
58518;SDS011;44310;48.106;12.008;2023-04-01T05:08:40;0.30;;;0.20;;
58518;SDS011;44310;48.106;12.008;2023-04-01T05:11:10;0.30;;;0.30;;
58518;SDS011;44310;48.106;12.008;2023-04-01T05:13:40;0.20;;;0.20;;
58518;SDS011;44310;48.106;12.008;2023-04-01T05:16:09;0.30;;;0.30;;
58518;SDS011;44310;48.106;12.008;2023-04-01T05:18:37;0.30;;;0.30;;
58518;SDS011;44310;48.106;12.008;2023-04-01T05:21:04;0.30;;;0.30;;
58518;SDS011;44310;48.106;12.008;2023-04-01T05:23:33;0.30;;;0.30;;
58518;SDS011;44310;48.106;12.008;2023-04-01T05:26:08;0.30;;;0.30;;
58518;SDS011;44310;48.106;12.008;2023-04-01T05:28:37;0.20;;;0.20;;
58518;SDS011;44310;48.106;12.008;2023-04-01T05:31:05;0.30;;;0.30;;
58518;SDS011;44310;48.106;12.008;2023-04-01T05:33:33;0.20;;;0.20;;
58518;SDS011;44310;48.106;12.008;2023-04-01T05:36:11;0.22;;;0.22;;
58518;SDS011;44310;48.106;12.008;2023-04-01T05:38:40;0.20;;;0.20;;
58518;SDS011;44310;48.106;12.008;2023-04-01T05:41:08;0.20;;;0.20;;
58518;SDS011;44310;48.106;12.008;2023-04-01T05:43:36;0.22;;;0.22;;
58518;SDS011;44310;48.106;12.008;2023-04-01T05:46:04;0.20;;;0.20;;
58518;SDS011;44310;48.106;12.008;2023-04-01T05:48:32;0.20;;;0.20;;
58518;SDS011;44310;48.106;12.008;2023-04-01T05:51:01;0.20;;;0.20;;
58518;SDS011;44310;48.106;12.008;2023-04-01T05:53:29;0.20;;;0.20;;
58518;SDS011;44310;48.106;12.008;2023-04-01T05:55:56;0.30;;;0.30;;
58518;SDS011;44310;48.106;12.008;2023-04-01T05:58:23;0.68;;;0.60;;
58518;SDS011;44310;48.106;12.008;2023-04-01T06:00:51;0.40;;;0.40;;
58518;SDS011;44310;48.106;12.008;2023-04-01T06:03:34;0.30;;;0.30;;
58518;SDS011;44310;48.106;12.008;2023-04-01T06:06:02;0.30;;;0.30;;
58518;SDS011;44310;48.106;12.008;2023-04-01T06:08:30;0.30;;;0.30;;
58518;SDS011;44310;48.106;12.008;2023-04-01T06:16:25;0.20;;;0.20;;
58518;SDS011;44310;48.106;12.008;2023-04-01T06:21:43;0.30;;;0.30;;
58518;SDS011;44310;48.106;12.008;2023-04-01T06:33:27;0.35;;;0.30;;
58518;SDS011;44310;48.106;12.008;2023-04-01T06:36:15;0.30;;;0.30;;
58518;SDS011;44310;48.106;12.008;2023-04-01T06:39:19;0.30;;;0.30;;
58518;SDS011;44310;48.106;12.008;2023-04-01T06:50:58;0.30;;;0.30;;
58518;SDS011;44310;48.106;12.008;2023-04-01T06:56:36;0.22;;;0.22;;
58518;SDS011;44310;48.106;12.008;2023-04-01T06:59:10;0.30;;;0.30;;
58518;SDS011;44310;48.106;12.008;2023-04-01T07:01:49;0.30;;;0.30;;
58518;SDS011;44310;48.106;12.008;2023-04-01T07:04:22;0.20;;;0.20;;
58518;SDS011;44310;48.106;12.008;2023-04-01T07:10:06;0.30;;;0.30;;
58518;SDS011;44310;48.106;12.008;2023-04-01T07:13:00;0.30;;;0.30;;
58518;SDS011;44310;48.106;12.008;2023-04-01T07:15:36;0.20;;;0.20;;
58518;SDS011;44310;48.106;12.008;2023-04-01T07:18:22;0.30;;;0.30;;
58518;SDS011;44310;48.106;12.008;2023-04-01T07:20:55;0.30;;;0.30;;
58518;SDS011;44310;48.106;12.008;2023-04-01T07:23:23;0.20;;;0.20;;
58518;SDS011;44310;48.106;12.008;2023-04-01T07:25:58;0.25;;;0.25;;
58518;SDS011;44310;48.106;12.008;2023-04-01T07:28:30;0.20;;;0.20;;
58518;SDS011;44310;48.106;12.008;2023-04-01T07:31:07;0.60;;;0.52;;
58518;SDS011;44310;48.106;12.008;2023-04-01T07:36:42;0.50;;;0.40;;
58518;SDS011;44310;48.106;12.008;2023-04-01T07:39:37;0.30;;;0.30;;
58518;SDS011;44310;48.106;12.008;2023-04-01T07:42:42;0.20;;;0.20;;
58518;SDS011;44310;48.106;12.008;2023-04-01T07:45:33;0.30;;;0.30;;
58518;SDS011;44310;48.106;12.008;2023-04-01T07:50:59;0.70;;;0.70;;
58518;SDS011;44310;48.106;12.008;2023-04-01T07:53:32;0.50;;;0.50;;
58518;SDS011;44310;48.106;12.008;2023-04-01T08:03:55;0.45;;;0.38;;
58518;SDS011;44310;48.106;12.008;2023-04-01T08:11:56;0.30;;;0.30;;
58518;SDS011;44310;48.106;12.008;2023-04-01T08:14:40;0.30;;;0.30;;
58518;SDS011;44310;48.106;12.008;2023-04-01T08:17:28;0.40;;;0.40;;
58518;SDS011;44310;48.106;12.008;2023-04-01T08:23:15;0.30;;;0.30;;
58518;SDS011;44310;48.106;12.008;2023-04-01T08:25:53;0.30;;;0.30;;
58518;SDS011;44310;48.106;12.008;2023-04-01T08:28:33;0.30;;;0.30;;
58518;SDS011;44310;48.106;12.008;2023-04-01T08:31:23;0.30;;;0.30;;
58518;SDS011;44310;48.106;12.008;2023-04-01T08:34:04;0.30;;;0.30;;
58518;SDS011;44310;48.106;12.008;2023-04-01T08:36:39;0.30;;;0.30;;
58518;SDS011;44310;48.106;12.008;2023-04-01T08:39:12;0.30;;;0.30;;
58518;SDS011;44310;48.106;12.008;2023-04-01T08:47:42;0.28;;;0.28;;
58518;SDS011;44310;48.106;12.008;2023-04-01T08:56:15;0.40;;;0.40;;
58518;SDS011;44310;48.106;12.008;2023-04-01T09:16:24;0.20;;;0.20;;
58518;SDS011;44310;48.106;12.008;2023-04-01T09:22:03;0.30;;;0.30;;
58518;SDS011;44310;48.106;12.008;2023-04-01T09:27:35;0.30;;;0.30;;
58518;SDS011;44310;48.106;12.008;2023-04-01T09:30:31;0.20;;;0.20;;
58518;SDS011;44310;48.106;12.008;2023-04-01T09:38:23;0.57;;;0.50;;
58518;SDS011;44310;48.106;12.008;2023-04-01T09:58:17;0.63;;;0.63;;
58518;SDS011;44310;48.106;12.008;2023-04-01T10:04:15;0.52;;;0.52;;
58518;SDS011;44310;48.106;12.008;2023-04-01T10:15:43;0.50;;;0.50;;
58518;SDS011;44310;48.106;12.008;2023-04-01T10:32:15;0.40;;;0.40;;
58518;SDS011;44310;48.106;12.008;2023-04-01T10:46:47;0.30;;;0.30;;
58518;SDS011;44310;48.106;12.008;2023-04-01T10:52:11;0.80;;;0.80;;
58518;SDS011;44310;48.106;12.008;2023-04-01T10:55:12;0.40;;;0.40;;
58518;SDS011;44310;48.106;12.008;2023-04-01T10:58:02;0.20;;;0.20;;
58518;SDS011;44310;48.106;12.008;2023-04-01T11:09:33;0.85;;;0.80;;
58518;SDS011;44310;48.106;12.008;2023-04-01T11:12:57;0.90;;;0.90;;
58518;SDS011;44310;48.106;12.008;2023-04-01T11:15:54;1.00;;;0.85;;
58518;SDS011;44310;48.106;12.008;2023-04-01T11:24:29;0.70;;;0.70;;
58518;SDS011;44310;48.106;12.008;2023-04-01T11:32:31;3.70;;;0.90;;
58518;SDS011;44310;48.106;12.008;2023-04-01T11:40:37;0.70;;;0.70;;
58518;SDS011;44310;48.106;12.008;2023-04-01T11:54:49;0.80;;;0.80;;
58518;SDS011;44310;48.106;12.008;2023-04-01T12:00:49;0.77;;;0.77;;
58518;SDS011;44310;48.106;12.008;2023-04-01T12:09:24;0.85;;;0.85;;
58518;SDS011;44310;48.106;12.008;2023-04-01T12:12:10;0.70;;;0.70;;
58518;SDS011;44310;48.106;12.008;2023-04-01T12:15:16;0.70;;;0.60;;
58518;SDS011;44310;48.106;12.008;2023-04-01T12:18:38;0.40;;;0.40;;
58518;SDS011;44310;48.106;12.008;2023-04-01T12:20:59;3.00;;;0.60;;
58518;SDS011;44310;48.106;12.008;2023-04-01T12:32:21;0.50;;;0.50;;
58518;SDS011;44310;48.106;12.008;2023-04-01T12:37:41;0.50;;;0.50;;
58518;SDS011;44310;48.106;12.008;2023-04-01T12:45:33;0.47;;;0.47;;
58518;SDS011;44310;48.106;12.008;2023-04-01T12:57:10;0.45;;;0.45;;
58518;SDS011;44310;48.106;12.008;2023-04-01T13:05:43;0.50;;;0.50;;
58518;SDS011;44310;48.106;12.008;2023-04-01T13:17:02;0.50;;;0.50;;
58518;SDS011;44310;48.106;12.008;2023-04-01T13:19:38;0.50;;;0.50;;
58518;SDS011;44310;48.106;12.008;2023-04-01T13:25:26;0.30;;;0.30;;
58518;SDS011;44310;48.106;12.008;2023-04-01T13:28:12;0.30;;;0.30;;
58518;SDS011;44310;48.106;12.008;2023-04-01T13:33:38;0.30;;;0.30;;
58518;SDS011;44310;48.106;12.008;2023-04-01T13:36:10;0.20;;;0.20;;
58518;SDS011;44310;48.106;12.008;2023-04-01T13:45:34;0.30;;;0.30;;
58518;SDS011;44310;48.106;12.008;2023-04-01T13:50:25;0.30;;;0.30;;
58518;SDS011;44310;48.106;12.008;2023-04-01T13:59:02;0.20;;;0.20;;
58518;SDS011;44310;48.106;12.008;2023-04-01T14:13:30;0.20;;;0.20;;
58518;SDS011;44310;48.106;12.008;2023-04-01T14:40:34;0.30;;;0.30;;
58518;SDS011;44310;48.106;12.008;2023-04-01T14:43:22;0.30;;;0.30;;
58518;SDS011;44310;48.106;12.008;2023-04-01T14:54:09;1.40;;;0.80;;
58518;SDS011;44310;48.106;12.008;2023-04-01T14:56:50;0.30;;;0.30;;
58518;SDS011;44310;48.106;12.008;2023-04-01T14:59:28;0.30;;;0.30;;
58518;SDS011;44310;48.106;12.008;2023-04-01T15:02:18;0.30;;;0.30;;
58518;SDS011;44310;48.106;12.008;2023-04-01T15:08:08;0.50;;;0.50;;
58518;SDS011;44310;48.106;12.008;2023-04-01T15:10:53;0.40;;;0.40;;
58518;SDS011;44310;48.106;12.008;2023-04-01T15:16:41;0.40;;;0.40;;
58518;SDS011;44310;48.106;12.008;2023-04-01T15:19:42;0.40;;;0.40;;
58518;SDS011;44310;48.106;12.008;2023-04-01T15:25:35;0.50;;;0.50;;
58518;SDS011;44310;48.106;12.008;2023-04-01T15:28:21;0.52;;;0.52;;
58518;SDS011;44310;48.106;12.008;2023-04-01T15:31:09;0.50;;;0.50;;
58518;SDS011;44310;48.106;12.008;2023-04-01T15:33:55;0.50;;;0.50;;
58518;SDS011;44310;48.106;12.008;2023-04-01T15:36:39;0.50;;;0.50;;
58518;SDS011;44310;48.106;12.008;2023-04-01T15:42:07;0.57;;;0.57;;
58518;SDS011;44310;48.106;12.008;2023-04-01T15:47:45;0.50;;;0.50;;
58518;SDS011;44310;48.106;12.008;2023-04-01T15:50:32;0.30;;;0.30;;
58518;SDS011;44310;48.106;12.008;2023-04-01T15:53:44;0.40;;;0.40;;
58518;SDS011;44310;48.106;12.008;2023-04-01T15:56:26;0.30;;;0.30;;
58518;SDS011;44310;48.106;12.008;2023-04-01T15:58:59;0.40;;;0.40;;
58518;SDS011;44310;48.106;12.008;2023-04-01T16:04:49;0.30;;;0.30;;
58518;SDS011;44310;48.106;12.008;2023-04-01T16:10:52;0.30;;;0.30;;
58518;SDS011;44310;48.106;12.008;2023-04-01T16:19:53;0.22;;;0.22;;
58518;SDS011;44310;48.106;12.008;2023-04-01T16:22:28;0.30;;;0.30;;
58518;SDS011;44310;48.106;12.008;2023-04-01T16:27:49;0.30;;;0.30;;
58518;SDS011;44310;48.106;12.008;2023-04-01T16:36:22;0.20;;;0.20;;
58518;SDS011;44310;48.106;12.008;2023-04-01T16:42:40;0.30;;;0.30;;
58518;SDS011;44310;48.106;12.008;2023-04-01T16:44:59;0.30;;;0.30;;
58518;SDS011;44310;48.106;12.008;2023-04-01T16:47:53;0.33;;;0.33;;
58518;SDS011;44310;48.106;12.008;2023-04-01T16:50:42;0.40;;;0.40;;
58518;SDS011;44310;48.106;12.008;2023-04-01T16:53:19;0.40;;;0.40;;
58518;SDS011;44310;48.106;12.008;2023-04-01T16:56:02;0.45;;;0.45;;
58518;SDS011;44310;48.106;12.008;2023-04-01T16:58:36;0.70;;;0.70;;
58518;SDS011;44310;48.106;12.008;2023-04-01T17:01:20;1.30;;;1.20;;
58518;SDS011;44310;48.106;12.008;2023-04-01T17:03:58;0.70;;;0.70;;
58518;SDS011;44310;48.106;12.008;2023-04-01T17:06:43;0.70;;;0.70;;
58518;SDS011;44310;48.106;12.008;2023-04-01T17:14:59;0.50;;;0.50;;
58518;SDS011;44310;48.106;12.008;2023-04-01T17:20:43;0.50;;;0.50;;
58518;SDS011;44310;48.106;12.008;2023-04-01T17:23:19;0.55;;;0.55;;
58518;SDS011;44310;48.106;12.008;2023-04-01T17:28:40;0.50;;;0.50;;
58518;SDS011;44310;48.106;12.008;2023-04-01T17:32:22;0.40;;;0.40;;
58518;SDS011;44310;48.106;12.008;2023-04-01T17:40:31;0.40;;;0.40;;
58518;SDS011;44310;48.106;12.008;2023-04-01T17:43:57;0.40;;;0.40;;
58518;SDS011;44310;48.106;12.008;2023-04-01T17:49:30;0.40;;;0.40;;
58518;SDS011;44310;48.106;12.008;2023-04-01T17:52:13;0.38;;;0.38;;
58518;SDS011;44310;48.106;12.008;2023-04-01T17:54:52;0.40;;;0.40;;
58518;SDS011;44310;48.106;12.008;2023-04-01T18:00:12;0.30;;;0.30;;
58518;SDS011;44310;48.106;12.008;2023-04-01T18:02:57;0.30;;;0.30;;
58518;SDS011;44310;48.106;12.008;2023-04-01T18:13:51;0.30;;;0.30;;
58518;SDS011;44310;48.106;12.008;2023-04-01T18:16:51;0.45;;;0.45;;
58518;SDS011;44310;48.106;12.008;2023-04-01T18:28:49;0.20;;;0.20;;
58518;SDS011;44310;48.106;12.008;2023-04-01T18:36:33;0.38;;;0.38;;
58518;SDS011;44310;48.106;12.008;2023-04-01T18:39:37;0.20;;;0.20;;
58518;SDS011;44310;48.106;12.008;2023-04-01T18:42:23;0.20;;;0.20;;
58518;SDS011;44310;48.106;12.008;2023-04-01T18:44:57;0.20;;;0.20;;
58518;SDS011;44310;48.106;12.008;2023-04-01T18:47:43;0.30;;;0.30;;
58518;SDS011;44310;48.106;12.008;2023-04-01T18:53:14;0.20;;;0.20;;
58518;SDS011;44310;48.106;12.008;2023-04-01T18:55:56;0.20;;;0.20;;
58518;SDS011;44310;48.106;12.008;2023-04-01T18:58:29;0.30;;;0.30;;
58518;SDS011;44310;48.106;12.008;2023-04-01T19:01:16;0.30;;;0.30;;
58518;SDS011;44310;48.106;12.008;2023-04-01T19:06:54;0.30;;;0.30;;
58518;SDS011;44310;48.106;12.008;2023-04-01T19:12:09;0.40;;;0.40;;
58518;SDS011;44310;48.106;12.008;2023-04-01T19:15:07;0.38;;;0.38;;
58518;SDS011;44310;48.106;12.008;2023-04-01T19:20:26;0.30;;;0.30;;
58518;SDS011;44310;48.106;12.008;2023-04-01T19:26:17;0.30;;;0.30;;
58518;SDS011;44310;48.106;12.008;2023-04-01T19:29:06;0.30;;;0.30;;
58518;SDS011;44310;48.106;12.008;2023-04-01T19:37:40;0.30;;;0.30;;
58518;SDS011;44310;48.106;12.008;2023-04-01T19:43:13;0.30;;;0.30;;
58518;SDS011;44310;48.106;12.008;2023-04-01T19:46:10;0.30;;;0.30;;
58518;SDS011;44310;48.106;12.008;2023-04-01T19:54:43;0.30;;;0.30;;
58518;SDS011;44310;48.106;12.008;2023-04-01T20:00:32;0.30;;;0.30;;
58518;SDS011;44310;48.106;12.008;2023-04-01T20:03:05;0.20;;;0.20;;
58518;SDS011;44310;48.106;12.008;2023-04-01T20:10:58;0.20;;;0.20;;
58518;SDS011;44310;48.106;12.008;2023-04-01T20:19:37;0.20;;;0.20;;
58518;SDS011;44310;48.106;12.008;2023-04-01T20:22:16;0.30;;;0.30;;
58518;SDS011;44310;48.106;12.008;2023-04-01T20:24:52;0.30;;;0.30;;
58518;SDS011;44310;48.106;12.008;2023-04-01T20:27:23;0.20;;;0.20;;
58518;SDS011;44310;48.106;12.008;2023-04-01T20:33:13;0.30;;;0.30;;
58518;SDS011;44310;48.106;12.008;2023-04-01T20:46:56;0.40;;;0.40;;
58518;SDS011;44310;48.106;12.008;2023-04-01T20:50:11;0.30;;;0.30;;
58518;SDS011;44310;48.106;12.008;2023-04-01T20:58:21;0.40;;;0.40;;
58518;SDS011;44310;48.106;12.008;2023-04-01T21:06:42;0.30;;;0.30;;
58518;SDS011;44310;48.106;12.008;2023-04-01T21:09:15;0.30;;;0.30;;
58518;SDS011;44310;48.106;12.008;2023-04-01T21:14:33;0.30;;;0.30;;
58518;SDS011;44310;48.106;12.008;2023-04-01T21:20:13;0.30;;;0.30;;
58518;SDS011;44310;48.106;12.008;2023-04-01T21:28:51;0.20;;;0.20;;
58518;SDS011;44310;48.106;12.008;2023-04-01T21:31:59;0.20;;;0.20;;
58518;SDS011;44310;48.106;12.008;2023-04-01T21:34:49;0.20;;;0.20;;
58518;SDS011;44310;48.106;12.008;2023-04-01T21:40:17;0.30;;;0.30;;
58518;SDS011;44310;48.106;12.008;2023-04-01T21:48:37;0.20;;;0.20;;
58518;SDS011;44310;48.106;12.008;2023-04-01T21:59:47;0.20;;;0.20;;
58518;SDS011;44310;48.106;12.008;2023-04-01T22:05:36;0.20;;;0.20;;
58518;SDS011;44310;48.106;12.008;2023-04-01T22:11:05;0.30;;;0.30;;
58518;SDS011;44310;48.106;12.008;2023-04-01T22:14:12;0.30;;;0.30;;
58518;SDS011;44310;48.106;12.008;2023-04-01T22:25:21;0.30;;;0.30;;
58518;SDS011;44310;48.106;12.008;2023-04-01T22:28:07;0.30;;;0.30;;
58518;SDS011;44310;48.106;12.008;2023-04-01T22:30:43;0.40;;;0.40;;
58518;SDS011;44310;48.106;12.008;2023-04-01T22:33:19;0.30;;;0.30;;
58518;SDS011;44310;48.106;12.008;2023-04-01T22:44:12;0.30;;;0.30;;
58518;SDS011;44310;48.106;12.008;2023-04-01T22:47:05;0.30;;;0.30;;
58518;SDS011;44310;48.106;12.008;2023-04-01T22:49:48;0.40;;;0.40;;
58518;SDS011;44310;48.106;12.008;2023-04-01T22:52:28;0.32;;;0.32;;
58518;SDS011;44310;48.106;12.008;2023-04-01T22:55:00;0.40;;;0.40;;
58518;SDS011;44310;48.106;12.008;2023-04-01T23:00:36;0.30;;;0.30;;
58518;SDS011;44310;48.106;12.008;2023-04-01T23:03:13;0.20;;;0.20;;
58518;SDS011;44310;48.106;12.008;2023-04-01T23:05:53;0.28;;;0.28;;
58518;SDS011;44310;48.106;12.008;2023-04-01T23:08:31;0.30;;;0.30;;
58518;SDS011;44310;48.106;12.008;2023-04-01T23:11:23;0.25;;;0.25;;
58518;SDS011;44310;48.106;12.008;2023-04-01T23:14:06;0.30;;;0.30;;
58518;SDS011;44310;48.106;12.008;2023-04-01T23:16:49;0.20;;;0.20;;
58518;SDS011;44310;48.106;12.008;2023-04-01T23:19:31;0.20;;;0.20;;
58518;SDS011;44310;48.106;12.008;2023-04-01T23:22:28;0.30;;;0.30;;
58518;SDS011;44310;48.106;12.008;2023-04-01T23:25:21;0.32;;;0.32;;
58518;SDS011;44310;48.106;12.008;2023-04-01T23:33:10;0.30;;;0.30;;
58518;SDS011;44310;48.106;12.008;2023-04-01T23:35:51;0.40;;;0.40;;
58518;SDS011;44310;48.106;12.008;2023-04-01T23:38:20;0.40;;;0.40;;
58518;SDS011;44310;48.106;12.008;2023-04-01T23:40:50;0.40;;;0.40;;
58518;SDS011;44310;48.106;12.008;2023-04-01T23:43:26;0.30;;;0.30;;
58518;SDS011;44310;48.106;12.008;2023-04-01T23:46:03;0.33;;;0.33;;
58518;SDS011;44310;48.106;12.008;2023-04-01T23:48:37;0.30;;;0.30;;
58518;SDS011;44310;48.106;12.008;2023-04-01T23:51:20;0.30;;;0.30;;
58518;SDS011;44310;48.106;12.008;2023-04-01T23:54:01;0.38;;;0.38;;
58518;SDS011;44310;48.106;12.008;2023-04-01T23:56:43;0.40;;;0.40;;
58518;SDS011;44310;48.106;12.008;2023-04-01T23:59:33;0.60;;;0.60;;
